Terminal Aerodrome Forecast
Issued by NWS

Home | Current Version | Previous Version | Graphics & Text | Print | Product List | Glossary Off
Versions: 1 2 3 4 5 6 7 8 9 10 11 12 13 14 15 16

999
FTUS43 KMPX 251720
TAFRWF
TAF
KRWF 251720Z 2518/2618 29011G18KT P6SM SCT030 BKN250
     FM260000 30004KT P6SM SKC
     FM261400 15005KT P6SM SKC=

USA.gov is the U.S. government's official web portal to all federal, state and local government web resources and services.